Hlavní strana
METAR-TAF:

METAR-TAF

Letiště :

N'Djamena, Čad

zeměpisná šířka: 12-08N, zeměpisná délka: 015-02E, výška: 295 m

Aktuální stav počasí

Zpráva byla vytvořena před 48 minutami, v 21:00 UTC
Severní vítr 5 kt
Teplota 19°C
Vlhkost vzduchu 14%
Tlak 1014 hPa
Viditelnost 10 km a více
Žádná oblačnost pod 1500 m, nevyskytují se cumulonimby.

METAR: FTTJ 222100Z 35005KT CAVOK 19/M09 Q1014 NOSIG

Čas: 22:48 (21:48 UTC)

Předpověď počasí

Zpráva byla vytvořena před 4 hodinami a 45 minutami, v 17:03 UTC
Předpověď platná od 22 v 18 UTC do 23 v 24 UTC
Severoseverovýchodní vítr 10 kt
Viditelnost 10 km a více
Žádná oblačnost pod 1500 m, nevyskytují se cumulonimby.
Pravděpodobnost 30% :
Dočasný
od 23 v 04 UTC do 28 v 07 UTC
Viditelnost: 4000 m
zákal
Dočasný
od 23 v 17 UTC do 23 v 19 UTC
Viditelnost: 4000 m
zákal

TAF: FTTJ 221703Z 2218/2324 02010KT CAVOK PROB30 TEMPO 2304/2807 4000 HZ TEMPO 2317/2319 4000 HZ

Stav a předpovědi počasí z více než 4 000 letišť (zprávy METAR a TAF).

Červené a žluté tečky na mapě představují dostupné meteorologické stanice.

Když kurzor umístíte na tečku, zobrazí se název stanice.

Pak kliknutím zobrazíte stav a předpověď počasí.

Chcete-li změnit mapu, kliknutím na zelené tlačítko se znaménkem +mapu přiblížíte, kliknutím na zelené tlačítko se znaménkem – mapu oddálíte a kliknutím na zelené šipky přejdete na sousední mapy.


METAR-TAF: